Terminal Aerodrome Forecast
Issued by NWS Cleveland, OH

Home | Current Version | Previous Version | Graphics & Text | Print | Product List | Glossary On
Versions: 1 2 3 4 5 6 7 8 9 10 11 12 13 14 15 16 17 18 19 20 21 22 23 24 25 26 27
000
FTUS41 KCLE 051600 AAB
TAFCAK
TAF AMD
KCAK 051607Z 0516/0612 20006KT 4SM HZ SCT025 OVC100
     FM052000 VRB04KT P6SM VCSH BKN035 OVC100
     FM060800 VRB03KT 4SM BR SCT040 BKN200=

USA.gov is the U.S. government's official web portal to all federal, state and local government web resources and services.